Time;durP1;ratioP1;P1;durP2;ratioP2;P2;SDS_P1;SDS_P2;PMS_P1;PMS_P2;Temp;Humidity;BMP_temperature;BMP_pressure;BME280_temperature;BME280_humidity;BME280_pressure;Samples;Min_cycle;Max_cycle;Signal;HPM_P1;HPM_P2
2023/05/20 00:03:06;;;;;;;4.70;1.80;;;;;;;9.37;50.03;101235.38;20159551;29;20278;-79
2023/05/20 00:13:08;;;;;;;5.20;1.60;;;;;;;9.27;50.05;101241.22;20155490;29;20202;-78
2023/05/20 00:23:10;;;;;;;3.10;2.15;;;;;;;8.92;50.71;101248.31;20158697;29;20206;-79
2023/05/20 00:33:12;;;;;;;4.60;2.00;;;;;;;8.87;51.15;101250.41;20125489;29;20210;-78
2023/05/20 00:43:15;;;;;;;3.83;2.50;;;;;;;8.95;51.45;101249.69;20131815;29;20234;-78
2023/05/20 00:53:17;;;;;;;5.68;2.08;;;;;;;8.72;51.74;101241.09;20170383;29;20205;-78
2023/05/20 01:03:19;;;;;;;5.80;2.50;;;;;;;8.68;52.41;101245.66;20145553;29;20543;-79
2023/05/20 01:13:23;;;;;;;9.40;4.03;;;;;;;8.42;52.51;101235.94;20136969;29;20548;-79
2023/05/20 01:23:32;;;;;;;5.07;4.20;;;;;;;8.28;53.36;101224.59;20147473;29;20261;-77
2023/05/20 01:33:35;;;;;;;2.83;2.13;;;;;;;8.33;52.77;101226.50;20156843;29;20202;-77
2023/05/20 01:43:38;;;;;;;3.90;1.95;;;;;;;8.33;52.88;101223.69;20136986;29;20237;-77
2023/05/20 01:53:41;;;;;;;4.10;2.03;;;;;;;7.81;53.85;101214.34;20185367;29;20218;-78
2023/05/20 02:03:43;;;;;;;5.00;2.50;;;;;;;8.55;51.76;101207.00;20159674;29;20190;-78
2023/05/20 02:13:45;;;;;;;2.40;1.73;;;;;;;8.31;51.82;101212.75;20209653;29;20206;-78
2023/05/20 02:23:48;;;;;;;2.75;1.42;;;;;;;8.39;51.56;101222.50;20178842;29;20198;-78
2023/05/20 02:33:50;;;;;;;2.42;1.73;;;;;;;8.08;53.38;101225.78;20139239;29;20226;-77
2023/05/20 02:43:53;;;;;;;1.93;1.30;;;;;;;7.75;53.58;101229.59;20167776;29;20258;-77
2023/05/20 02:53:55;;;;;;;1.77;1.43;;;;;;;7.84;53.33;101224.16;20154320;29;20255;-77
2023/05/20 03:03:58;;;;;;;4.20;1.67;;;;;;;7.90;53.24;101211.69;20159912;29;20261;-77
2023/05/20 03:14:00;;;;;;;4.27;1.40;;;;;;;7.81;53.56;101217.16;20178223;29;20301;-77
2023/05/20 03:24:02;;;;;;;6.10;1.90;;;;;;;7.49;54.66;101211.41;20117827;29;20265;-77
2023/05/20 03:34:05;;;;;;;3.37;2.10;;;;;;;7.38;56.20;101199.44;20151431;29;20243;-77
2023/05/20 03:44:07;;;;;;;2.90;2.10;;;;;;;7.90;54.06;101201.28;20138273;29;20819;-76
2023/05/20 03:54:09;;;;;;;4.97;2.45;;;;;;;7.95;54.61;101198.41;20136053;29;20222;-77
2023/05/20 04:04:12;;;;;;;4.78;2.50;;;;;;;8.00;53.64;101189.06;20152622;29;20198;-77
2023/05/20 04:14:16;;;;;;;4.45;3.10;;;;;;;7.75;55.16;101198.69;20165113;29;20271;-76
2023/05/20 04:24:18;;;;;;;4.50;2.78;;;;;;;8.06;54.84;101199.94;20147903;29;20505;-76
2023/05/20 04:34:25;;;;;;;4.97;2.72;;;;;;;8.21;54.32;101192.41;20132200;29;20716;-76
2023/05/20 04:44:28;;;;;;;3.65;2.03;;;;;;;8.21;54.62;101195.22;20141402;29;20245;-77
2023/05/20 04:54:31;;;;;;;3.90;2.73;;;;;;;9.50;57.70;101195.06;20148241;29;20214;-79
2023/05/20 05:04:34;;;;;;;3.63;1.65;;;;;;;8.99;52.48;101200.06;20133770;29;20198;-77
2023/05/20 05:14:36;;;;;;;2.70;1.70;;;;;;;8.52;53.99;101184.28;20138004;29;20219;-77
2023/05/20 05:24:38;;;;;;;2.58;2.13;;;;;;;8.46;53.87;101197.59;20152323;29;20190;-77
2023/05/20 05:34:41;;;;;;;3.78;2.42;;;;;;;8.77;52.65;101190.34;20153001;29;20210;-77
2023/05/20 05:44:43;;;;;;;7.37;2.20;;;;;;;9.48;51.97;101180.47;20135882;29;20233;-78
2023/05/20 05:54:45;;;;;;;4.82;1.70;;;;;;;8.85;54.08;101172.72;20131616;29;20270;-77
2023/05/20 06:04:48;;;;;;;3.60;2.60;;;;;;;9.32;53.31;101169.81;20135868;29;20205;-76
2023/05/20 06:14:51;;;;;;;2.73;2.33;;;;;;;9.92;52.62;101156.41;20138118;29;20210;-76
2023/05/20 06:24:59;;;;;;;4.27;2.50;;;;;;;10.15;50.90;101152.44;20152391;29;20198;-76
2023/05/20 06:35:01;;;;;;;3.60;2.20;;;;;;;10.26;52.16;101151.03;20143956;29;20481;-78
2023/05/20 06:45:05;;;;;;;3.50;1.92;;;;;;;10.31;51.60;101154.88;20160450;29;20544;-77
2023/05/20 06:55:30;;;;;;;6.28;2.80;;;;;;;9.63;53.53;101153.94;20167994;29;20301;-77
2023/05/20 07:05:33;;;;;;;3.60;2.85;;;;;;;9.20;55.04;101157.09;20160768;29;20728;-77
2023/05/20 07:15:37;;;;;;;3.75;3.22;;;;;;;9.91;52.08;101144.28;20150503;29;20217;-77
2023/05/20 07:25:39;;;;;;;3.35;2.97;;;;;;;10.34;51.95;101146.63;20136115;29;20202;-78
2023/05/20 07:35:43;;;;;;;3.80;3.13;;;;;;;10.42;51.59;101122.41;20146937;29;20438;-78
2023/05/20 07:45:46;;;;;;;4.85;3.60;;;;;;;10.39;52.45;101121.06;20141180;29;20880;-77
2023/05/20 07:55:49;;;;;;;6.00;3.65;;;;;;;11.52;49.95;101125.25;20141168;29;20254;-77
2023/05/20 08:05:52;;;;;;;4.73;3.73;;;;;;;11.13;49.92;101137.41;20175206;29;20206;-79
2023/05/20 08:15:54;;;;;;;4.65;3.95;;;;;;;11.12;50.38;101128.13;20142469;29;20249;-78
2023/05/20 08:26:01;;;;;;;5.60;3.97;;;;;;;11.78;50.31;101106.31;20127950;29;20202;-78
2023/05/20 08:36:07;;;;;;;7.80;4.45;;;;;;;11.66;48.92;101108.97;20144680;29;20496;-77
2023/05/20 08:46:10;;;;;;;6.05;4.07;;;;;;;11.46;49.30;101126.59;20125653;29;20307;-78
2023/05/20 08:56:14;;;;;;;5.20;4.70;;;;;;;10.93;50.58;101113.41;20169288;29;20748;-78
2023/05/20 09:06:20;;;;;;;7.22;4.45;;;;;;;11.09;50.82;101123.13;20136565;29;20202;-78
2023/05/20 09:16:22;;;;;;;5.75;4.60;;;;;;;10.95;51.59;101128.88;20203865;29;20282;-78
2023/05/20 09:26:30;;;;;;;7.68;4.20;;;;;;;11.40;48.99;101111.75;20142541;29;20221;-77
2023/05/20 09:36:35;;;;;;;6.63;5.47;;;;;;;11.34;51.07;101113.88;20137827;29;20234;-77
2023/05/20 09:46:40;;;;;;;7.00;4.68;;;;;;;11.73;50.15;101105.66;20099583;29;20628;-77
2023/05/20 09:56:43;;;;;;;5.25;4.75;;;;;;;11.55;50.80;101111.28;20068280;29;20291;-77
2023/05/20 10:07:13;;;;;;;8.55;4.80;;;;;;;11.21;52.96;101099.88;20076700;29;20191;-77
2023/05/20 10:17:42;;;;;;;6.22;5.20;;;;;;;12.38;48.88;101075.19;20092449;29;20270;-77
2023/05/20 10:27:46;;;;;;;7.10;4.68;;;;;;;12.63;48.27;101070.59;20095873;29;20608;-77
2023/05/20 10:37:48;;;;;;;5.25;4.28;;;;;;;13.30;47.08;101051.97;20087086;29;20275;-77
2023/05/20 10:47:58;;;;;;;7.75;4.50;;;;;;;13.91;48.36;101035.31;20091546;29;20275;-78
2023/05/20 10:58:01;;;;;;;5.07;4.57;;;;;;;13.83;47.15;101028.53;20064962;29;20217;-77
2023/05/20 11:08:05;;;;;;;6.45;4.60;;;;;;;14.08;45.39;101013.25;20081865;29;20191;-76
2023/05/20 11:18:29;;;;;;;8.10;4.97;;;;;;;14.85;46.00;101007.84;20100257;29;20223;-78
2023/05/20 11:28:32;;;;;;;4.80;4.07;;;;;;;14.51;47.54;101007.09;20054964;29;20240;-76
2023/05/20 11:38:34;;;;;;;4.28;3.75;;;;;;;15.08;43.57;100989.09;20084871;29;20573;-78
2023/05/20 11:48:36;;;;;;;3.70;3.05;;;;;;;15.06;44.66;100980.09;20165143;29;20581;-76
2023/05/20 11:58:43;;;;;;;4.75;3.03;;;;;;;14.32;45.14;100967.03;20158135;29;20247;-76
2023/05/20 12:08:49;;;;;;;4.85;3.25;;;;;;;14.21;45.51;100960.16;20142694;29;20205;-76
2023/05/20 12:18:52;;;;;;;4.20;2.80;;;;;;;14.10;45.22;100953.28;20142006;29;20520;-74
2023/05/20 12:28:55;;;;;;;5.28;2.90;;;;;;;15.56;44.16;100951.19;20163373;29;20328;-75
2023/05/20 12:38:57;;;;;;;6.82;3.35;;;;;;;15.37;43.58;100938.81;20136522;29;20230;-75
2023/05/20 12:49:00;;;;;;;4.65;3.45;;;;;;;14.64;45.28;100950.28;20161452;29;20548;-76
2023/05/20 12:59:02;;;;;;;13.95;3.17;;;;;;;15.41;44.07;100926.34;20133213;29;20230;-78
2023/05/20 13:09:04;;;;;;;4.63;2.97;;;;;;;14.70;42.69;100923.28;20136444;29;20197;-76
2023/05/20 13:19:06;;;;;;;5.10;3.33;;;;;;;15.12;44.06;100904.75;20109698;29;20217;-76
2023/05/20 13:29:09;;;;;;;3.03;2.67;;;;;;;15.13;42.19;100895.03;20129377;29;20234;-77
2023/05/20 13:39:11;;;;;;;3.58;2.50;;;;;;;15.13;42.37;100888.50;20144658;29;20293;-78
2023/05/20 13:49:13;;;;;;;4.53;2.97;;;;;;;14.77;43.29;100886.56;20133495;29;20255;-79
2023/05/20 13:59:16;;;;;;;3.00;2.45;;;;;;;14.32;45.41;100896.03;20139655;29;20253;-79
2023/05/20 14:09:18;;;;;;;2.53;2.33;;;;;;;14.96;42.18;100877.41;20342410;23;20632;-77
2023/05/20 14:19:20;;;;;;;3.17;2.88;;;;;;;14.54;44.65;100865.53;20405686;29;20298;-78
2023/05/20 14:29:23;;;;;;;2.95;2.63;;;;;;;15.41;42.29;100854.38;20439462;29;20196;-79
2023/05/20 14:39:25;;;;;;;9.38;3.95;;;;;;;14.48;45.54;100857.22;20395359;29;20270;-78
2023/05/20 14:49:27;;;;;;;3.53;3.05;;;;;;;14.61;44.29;100838.19;20402607;29;20192;-78
2023/05/20 14:59:30;;;;;;;13.43;4.53;;;;;;;14.93;43.22;100833.47;20405014;29;20243;-82
2023/05/20 15:09:33;;;;;;;13.65;4.53;;;;;;;13.97;44.88;100843.72;20368234;29;20287;-79
2023/05/20 15:19:36;;;;;;;11.60;4.28;;;;;;;14.39;44.04;100847.16;20351965;29;20287;-79
2023/05/20 15:29:41;;;;;;;4.00;3.42;;;;;;;13.85;45.65;100850.19;20336404;29;20193;-82
2023/05/20 15:39:43;;;;;;;5.95;4.93;;;;;;;13.91;45.31;100847.97;20338915;29;20229;-82
2023/05/20 15:49:46;;;;;;;4.00;3.65;;;;;;;14.29;45.17;100845.63;20340224;29;20200;-83
2023/05/20 15:59:48;;;;;;;4.25;3.95;;;;;;;13.87;45.59;100847.00;20337675;29;20727;-84
2023/05/20 16:09:50;;;;;;;3.70;3.40;;;;;;;13.56;47.43;100830.50;20354740;29;20276;-83
2023/05/20 16:19:52;;;;;;;8.95;5.97;;;;;;;13.80;46.06;100830.59;20337945;29;20293;-84
2023/05/20 16:29:55;;;;;;;5.03;3.92;;;;;;;13.48;46.52;100829.41;20355235;29;20466;-83
2023/05/20 16:39:57;;;;;;;3.45;3.15;;;;;;;13.78;46.49;100821.59;20327667;29;20224;-82
2023/05/20 16:50:00;;;;;;;5.88;3.33;;;;;;;13.30;47.21;100825.09;20315986;29;20200;-82
2023/05/20 17:00:10;;;;;;;25.27;7.03;;;;;;;13.80;45.75;100820.06;20340293;29;20212;-81
2023/05/20 17:10:12;;;;;;;33.05;7.90;;;;;;;13.68;46.44;100828.53;20334156;29;20260;-83
2023/05/20 17:20:14;;;;;;;6.63;4.18;;;;;;;14.07;46.03;100840.44;20337112;29;20216;-82
2023/05/20 17:30:16;;;;;;;6.22;3.90;;;;;;;13.86;46.49;100854.69;20322515;29;20224;-82
2023/05/20 17:40:19;;;;;;;6.25;4.25;;;;;;;13.28;48.27;100828.28;20317253;29;20533;-79
2023/05/20 17:50:21;;;;;;;6.30;5.45;;;;;;;13.07;48.86;100833.97;20338384;29;20192;-78
2023/05/20 18:00:25;;;;;;;6.43;5.30;;;;;;;12.87;49.75;100836.81;20331432;29;20224;-77
2023/05/20 18:10:28;;;;;;;5.93;4.90;;;;;;;13.59;47.83;100841.16;20323692;29;20279;-78
2023/05/20 18:20:30;;;;;;;7.78;4.72;;;;;;;13.32;48.87;100829.25;20345935;29;20594;-78
2023/05/20 18:30:32;;;;;;;5.50;5.00;;;;;;;13.29;50.15;100843.31;20327302;29;20582;-79
2023/05/20 18:40:36;;;;;;;8.70;6.30;;;;;;;12.91;50.06;100847.13;20305109;29;20293;-79
2023/05/20 18:50:39;;;;;;;5.95;5.35;;;;;;;12.92;51.04;100851.59;20341560;29;20196;-78
2023/05/20 19:00:41;;;;;;;7.45;5.65;;;;;;;12.92;51.29;100862.94;20349896;29;20216;-79
2023/05/20 19:10:43;;;;;;;8.40;6.28;;;;;;;12.94;50.60;100857.72;20328517;29;20260;-78
2023/05/20 19:20:46;;;;;;;8.05;6.65;;;;;;;12.70;51.81;100849.94;20362770;29;20220;-80
2023/05/20 19:30:48;;;;;;;11.68;8.68;;;;;;;12.93;51.21;100847.59;20359571;29;20213;-81
2023/05/20 19:40:51;;;;;;;13.15;9.25;;;;;;;12.61;52.55;100856.84;20357311;29;20223;-79
2023/05/20 19:50:55;;;;;;;7.22;6.53;;;;;;;12.18;53.51;100859.88;20348407;29;20575;-81
2023/05/20 20:00:59;;;;;;;11.07;7.40;;;;;;;12.11;53.51;100859.59;20397646;29;20220;-78
2023/05/20 20:11:01;;;;;;;9.48;7.43;;;;;;;11.99;54.60;100857.50;20349119;29;20284;-79
2023/05/20 20:21:04;;;;;;;10.85;8.65;;;;;;;12.09;54.10;100859.94;20342400;29;20518;-81
2023/05/20 20:31:06;;;;;;;15.20;9.63;;;;;;;11.61;56.48;100852.63;20339619;29;20196;-79
2023/05/20 20:41:09;;;;;;;21.98;14.68;;;;;;;11.90;56.19;100865.19;20335222;29;20252;-80
2023/05/20 20:51:15;;;;;;;20.73;13.35;;;;;;;11.85;55.57;100860.53;20342055;29;20252;-79
2023/05/20 21:01:17;;;;;;;29.80;20.98;;;;;;;12.05;55.54;100858.94;20348881;29;21102;-79
2023/05/20 21:11:21;;;;;;;13.90;9.98;;;;;;;11.52;57.67;100854.63;20341141;29;20288;-79
2023/05/20 21:21:23;;;;;;;15.60;10.30;;;;;;;11.36;58.01;100839.41;20326395;29;20224;-79
2023/05/20 21:31:25;;;;;;;13.35;9.18;;;;;;;11.33;58.13;100837.19;20339299;29;20248;-78
2023/05/20 21:41:27;;;;;;;13.95;10.02;;;;;;;11.64;57.51;100823.66;20334202;29;20279;-79
2023/05/20 21:51:30;;;;;;;13.98;9.27;;;;;;;11.55;57.54;100810.72;20344576;29;20543;-78
2023/05/20 22:01:32;;;;;;;12.55;8.82;;;;;;;11.51;58.08;100806.94;20359888;29;20220;-79
2023/05/20 22:11:36;;;;;;;13.45;9.45;;;;;;;11.20;58.75;100809.97;20370192;29;20525;-79
2023/05/20 22:21:39;;;;;;;10.35;7.75;;;;;;;11.36;58.83;100797.00;20348148;29;20216;-79
2023/05/20 22:31:52;;;;;;;11.18;8.63;;;;;;;11.06;59.71;100796.00;20357284;29;20659;-79
2023/05/20 22:41:54;;;;;;;11.50;8.18;;;;;;;11.07;59.81;100774.25;20318948;29;20526;-79
2023/05/20 22:51:58;;;;;;;10.07;7.70;;;;;;;10.62;61.34;100761.31;20349103;29;20205;-79
2023/05/20 23:02:01;;;;;;;11.73;7.72;;;;;;;10.85;60.25;100756.34;20344648;29;20354;-79
2023/05/20 23:12:03;;;;;;;9.00;7.22;;;;;;;10.68;61.28;100750.69;20338743;29;20244;-79
2023/05/20 23:22:06;;;;;;;11.55;8.70;;;;;;;10.65;61.32;100745.72;20283806;29;20228;-79
2023/05/20 23:32:08;;;;;;;10.88;8.38;;;;;;;10.68;61.51;100730.94;20344679;29;20608;-79
2023/05/20 23:42:10;;;;;;;11.93;8.57;;;;;;;10.65;61.54;100723.13;20328649;29;20224;-78
2023/05/20 23:52:12;;;;;;;11.43;8.18;;;;;;;10.31;63.10;100706.19;20343995;29;20214;-77
